sensor_id;sensor_type;location;lat;lon;timestamp;pressure;altitude;pressure_sealevel;temperature;humidity
75089;BME280;63673;49.928;8.150;2024-03-06T00:00:43;992.12;;;4.16;100
75089;BME280;63673;49.928;8.150;2024-03-06T00:01:45;992.15;;;4.18;100
75089;BME280;63673;49.928;8.150;2024-03-06T00:02:46;992.19;;;4.19;100
75089;BME280;63673;49.928;8.150;2024-03-06T00:03:48;992.2;;;4.19;100
75089;BME280;63673;49.928;8.150;2024-03-06T00:04:50;992.18;;;4.2;100
75089;BME280;63673;49.928;8.150;2024-03-06T00:05:52;992.16;;;4.22;100
75089;BME280;63673;49.928;8.150;2024-03-06T00:06:53;992.23;;;4.23;100
75089;BME280;63673;49.928;8.150;2024-03-06T00:07:55;992.22;;;4.24;100
75089;BME280;63673;49.928;8.150;2024-03-06T00:08:57;992.22;;;4.24;100
75089;BME280;63673;49.928;8.150;2024-03-06T00:09:59;992.24;;;4.24;100
75089;BME280;63673;49.928;8.150;2024-03-06T00:11:00;992.24;;;4.24;100
75089;BME280;63673;49.928;8.150;2024-03-06T00:12:02;992.27;;;4.24;100
75089;BME280;63673;49.928;8.150;2024-03-06T00:13:04;992.26;;;4.25;100
75089;BME280;63673;49.928;8.150;2024-03-06T00:14:05;992.27;;;4.24;100
75089;BME280;63673;49.928;8.150;2024-03-06T00:15:07;992.29;;;4.25;100
75089;BME280;63673;49.928;8.150;2024-03-06T00:16:09;992.32;;;4.24;100
75089;BME280;63673;49.928;8.150;2024-03-06T00:17:11;992.29;;;4.25;100
75089;BME280;63673;49.928;8.150;2024-03-06T00:18:12;992.34;;;4.26;100
75089;BME280;63673;49.928;8.150;2024-03-06T00:19:14;992.32;;;4.26;100
75089;BME280;63673;49.928;8.150;2024-03-06T00:20:16;992.34;;;4.27;100
75089;BME280;63673;49.928;8.150;2024-03-06T00:21:18;992.34;;;4.28;100
75089;BME280;63673;49.928;8.150;2024-03-06T00:22:19;992.36;;;4.28;100
75089;BME280;63673;49.928;8.150;2024-03-06T00:23:21;992.33;;;4.28;100
75089;BME280;63673;49.928;8.150;2024-03-06T00:24:23;992.3;;;4.29;100
75089;BME280;63673;49.928;8.150;2024-03-06T00:25:25;992.37;;;4.3;100
75089;BME280;63673;49.928;8.150;2024-03-06T00:26:26;992.37;;;4.3;100
75089;BME280;63673;49.928;8.150;2024-03-06T00:27:28;992.31;;;4.3;100
75089;BME280;63673;49.928;8.150;2024-03-06T00:28:30;992.36;;;4.31;100
75089;BME280;63673;49.928;8.150;2024-03-06T00:29:31;992.4;;;4.31;100
75089;BME280;63673;49.928;8.150;2024-03-06T00:30:33;992.43;;;4.29;100
75089;BME280;63673;49.928;8.150;2024-03-06T00:31:35;992.4;;;4.3;100
75089;BME280;63673;49.928;8.150;2024-03-06T00:32:37;992.42;;;4.29;100
75089;BME280;63673;49.928;8.150;2024-03-06T00:33:39;992.39;;;4.3;100
75089;BME280;63673;49.928;8.150;2024-03-06T00:34:40;992.37;;;4.3;100
75089;BME280;63673;49.928;8.150;2024-03-06T00:35:42;992.41;;;4.29;100
75089;BME280;63673;49.928;8.150;2024-03-06T00:36:44;992.41;;;4.28;100
75089;BME280;63673;49.928;8.150;2024-03-06T00:37:45;992.41;;;4.28;100
75089;BME280;63673;49.928;8.150;2024-03-06T00:38:47;992.35;;;4.28;100
75089;BME280;63673;49.928;8.150;2024-03-06T00:39:49;992.43;;;4.28;100
75089;BME280;63673;49.928;8.150;2024-03-06T00:40:51;992.43;;;4.26;100
75089;BME280;63673;49.928;8.150;2024-03-06T00:41:52;992.43;;;4.25;100
75089;BME280;63673;49.928;8.150;2024-03-06T00:42:54;992.49;;;4.25;100
75089;BME280;63673;49.928;8.150;2024-03-06T00:43:56;992.49;;;4.24;100
75089;BME280;63673;49.928;8.150;2024-03-06T00:44:57;992.49;;;4.22;100
75089;BME280;63673;49.928;8.150;2024-03-06T00:45:59;992.52;;;4.21;100
75089;BME280;63673;49.928;8.150;2024-03-06T00:47:01;992.51;;;4.2;100
75089;BME280;63673;49.928;8.150;2024-03-06T00:48:03;992.48;;;4.18;100
75089;BME280;63673;49.928;8.150;2024-03-06T00:49:04;992.52;;;4.16;100
75089;BME280;63673;49.928;8.150;2024-03-06T00:50:06;992.53;;;4.14;100
75089;BME280;63673;49.928;8.150;2024-03-06T00:51:08;992.55;;;4.12;100
75089;BME280;63673;49.928;8.150;2024-03-06T00:52:10;992.53;;;4.1;100
75089;BME280;63673;49.928;8.150;2024-03-06T00:53:11;992.55;;;4.07;100
75089;BME280;63673;49.928;8.150;2024-03-06T00:54:13;992.54;;;4.05;100
75089;BME280;63673;49.928;8.150;2024-03-06T00:55:15;992.55;;;4.02;100
75089;BME280;63673;49.928;8.150;2024-03-06T00:56:17;992.56;;;3.99;100
75089;BME280;63673;49.928;8.150;2024-03-06T00:57:18;992.51;;;3.97;100
75089;BME280;63673;49.928;8.150;2024-03-06T00:58:20;992.57;;;3.95;100
75089;BME280;63673;49.928;8.150;2024-03-06T00:59:22;992.54;;;3.93;100
75089;BME280;63673;49.928;8.150;2024-03-06T01:00:23;992.49;;;3.89;100
75089;BME280;63673;49.928;8.150;2024-03-06T01:01:25;992.53;;;3.88;100
75089;BME280;63673;49.928;8.150;2024-03-06T01:02:27;992.54;;;3.86;100
75089;BME280;63673;49.928;8.150;2024-03-06T01:03:29;992.49;;;3.85;100
75089;BME280;63673;49.928;8.150;2024-03-06T01:04:30;992.55;;;3.84;100
75089;BME280;63673;49.928;8.150;2024-03-06T01:05:32;992.53;;;3.82;100
75089;BME280;63673;49.928;8.150;2024-03-06T01:06:34;992.54;;;3.8;100
75089;BME280;63673;49.928;8.150;2024-03-06T01:07:37;992.58;;;3.78;100
75089;BME280;63673;49.928;8.150;2024-03-06T01:08:37;992.55;;;3.76;100
75089;BME280;63673;49.928;8.150;2024-03-06T01:09:39;992.52;;;3.75;100
75089;BME280;63673;49.928;8.150;2024-03-06T01:10:41;992.57;;;3.74;100
75089;BME280;63673;49.928;8.150;2024-03-06T01:11:43;992.63;;;3.74;100
75089;BME280;63673;49.928;8.150;2024-03-06T01:12:44;992.62;;;3.73;100
75089;BME280;63673;49.928;8.150;2024-03-06T01:13:46;992.63;;;3.73;100
75089;BME280;63673;49.928;8.150;2024-03-06T01:14:48;992.63;;;3.72;100
75089;BME280;63673;49.928;8.150;2024-03-06T01:15:49;992.58;;;3.72;100
75089;BME280;63673;49.928;8.150;2024-03-06T01:16:51;992.66;;;3.72;100
75089;BME280;63673;49.928;8.150;2024-03-06T01:17:53;992.68;;;3.71;100
75089;BME280;63673;49.928;8.150;2024-03-06T01:18:55;992.69;;;3.7;100
75089;BME280;63673;49.928;8.150;2024-03-06T01:19:56;992.65;;;3.69;100
75089;BME280;63673;49.928;8.150;2024-03-06T01:20:58;992.73;;;3.68;100
75089;BME280;63673;49.928;8.150;2024-03-06T01:22:00;992.71;;;3.65;100
75089;BME280;63673;49.928;8.150;2024-03-06T01:23:02;992.75;;;3.64;100
75089;BME280;63673;49.928;8.150;2024-03-06T01:24:03;992.78;;;3.6;100
75089;BME280;63673;49.928;8.150;2024-03-06T01:25:05;992.77;;;3.57;100
75089;BME280;63673;49.928;8.150;2024-03-06T01:26:07;992.83;;;3.55;100
75089;BME280;63673;49.928;8.150;2024-03-06T01:27:09;992.78;;;3.52;100
75089;BME280;63673;49.928;8.150;2024-03-06T01:28:10;992.8;;;3.52;100
75089;BME280;63673;49.928;8.150;2024-03-06T01:29:12;992.74;;;3.47;100
75089;BME280;63673;49.928;8.150;2024-03-06T01:30:14;992.82;;;3.45;100
75089;BME280;63673;49.928;8.150;2024-03-06T01:31:15;992.7;;;3.43;100
75089;BME280;63673;49.928;8.150;2024-03-06T01:32:17;992.79;;;3.4;100
75089;BME280;63673;49.928;8.150;2024-03-06T01:33:19;992.82;;;3.39;100
75089;BME280;63673;49.928;8.150;2024-03-06T01:34:21;992.85;;;3.38;100
75089;BME280;63673;49.928;8.150;2024-03-06T01:35:23;992.81;;;3.35;100
75089;BME280;63673;49.928;8.150;2024-03-06T01:36:24;992.78;;;3.32;100
75089;BME280;63673;49.928;8.150;2024-03-06T01:37:26;992.84;;;3.31;100
75089;BME280;63673;49.928;8.150;2024-03-06T01:38:28;992.83;;;3.28;100
75089;BME280;63673;49.928;8.150;2024-03-06T01:39:29;992.82;;;3.26;100
75089;BME280;63673;49.928;8.150;2024-03-06T01:40:31;992.8;;;3.25;100
75089;BME280;63673;49.928;8.150;2024-03-06T01:41:33;992.75;;;3.24;100
75089;BME280;63673;49.928;8.150;2024-03-06T01:42:35;992.79;;;3.23;100
75089;BME280;63673;49.928;8.150;2024-03-06T01:43:37;992.75;;;3.23;100
75089;BME280;63673;49.928;8.150;2024-03-06T01:44:38;992.73;;;3.23;100
75089;BME280;63673;49.928;8.150;2024-03-06T01:45:40;992.79;;;3.23;100
75089;BME280;63673;49.928;8.150;2024-03-06T01:46:42;992.77;;;3.23;100
75089;BME280;63673;49.928;8.150;2024-03-06T01:47:43;992.72;;;3.23;100
75089;BME280;63673;49.928;8.150;2024-03-06T01:48:45;992.77;;;3.24;100
75089;BME280;63673;49.928;8.150;2024-03-06T01:49:47;992.78;;;3.24;100
75089;BME280;63673;49.928;8.150;2024-03-06T01:50:48;992.82;;;3.24;100
75089;BME280;63673;49.928;8.150;2024-03-06T01:51:51;992.77;;;3.24;100
75089;BME280;63673;49.928;8.150;2024-03-06T01:52:52;992.82;;;3.25;100
75089;BME280;63673;49.928;8.150;2024-03-06T01:53:54;992.82;;;3.24;100
75089;BME280;63673;49.928;8.150;2024-03-06T01:54:55;992.81;;;3.25;100
75089;BME280;63673;49.928;8.150;2024-03-06T01:55:57;992.79;;;3.25;100
75089;BME280;63673;49.928;8.150;2024-03-06T01:56:59;992.81;;;3.25;100
75089;BME280;63673;49.928;8.150;2024-03-06T01:58:00;992.83;;;3.25;100
75089;BME280;63673;49.928;8.150;2024-03-06T01:59:02;992.83;;;3.25;100
75089;BME280;63673;49.928;8.150;2024-03-06T02:00:04;992.8;;;3.26;100
75089;BME280;63673;49.928;8.150;2024-03-06T02:01:06;992.84;;;3.26;100
75089;BME280;63673;49.928;8.150;2024-03-06T02:02:07;992.84;;;3.26;100
75089;BME280;63673;49.928;8.150;2024-03-06T02:03:10;992.87;;;3.26;100
75089;BME280;63673;49.928;8.150;2024-03-06T02:04:11;992.85;;;3.27;100
75089;BME280;63673;49.928;8.150;2024-03-06T02:05:13;992.8;;;3.28;100
75089;BME280;63673;49.928;8.150;2024-03-06T02:06:14;992.84;;;3.3;100
75089;BME280;63673;49.928;8.150;2024-03-06T02:07:16;992.87;;;3.33;100
75089;BME280;63673;49.928;8.150;2024-03-06T02:08:18;992.86;;;3.35;100
75089;BME280;63673;49.928;8.150;2024-03-06T02:09:20;992.86;;;3.37;100
75089;BME280;63673;49.928;8.150;2024-03-06T02:10:21;992.84;;;3.4;100
75089;BME280;63673;49.928;8.150;2024-03-06T02:11:23;992.86;;;3.42;100
75089;BME280;63673;49.928;8.150;2024-03-06T02:12:25;992.8;;;3.44;100
75089;BME280;63673;49.928;8.150;2024-03-06T02:13:26;992.82;;;3.47;100
75089;BME280;63673;49.928;8.150;2024-03-06T02:14:28;992.81;;;3.49;100
75089;BME280;63673;49.928;8.150;2024-03-06T02:15:30;992.84;;;3.52;100
75089;BME280;63673;49.928;8.150;2024-03-06T02:16:33;992.84;;;3.53;100
75089;BME280;63673;49.928;8.150;2024-03-06T02:17:33;992.82;;;3.56;100
75089;BME280;63673;49.928;8.150;2024-03-06T02:18:35;992.89;;;3.58;100
75089;BME280;63673;49.928;8.150;2024-03-06T02:19:37;992.87;;;3.61;100
75089;BME280;63673;49.928;8.150;2024-03-06T02:20:41;992.84;;;3.61;100
75089;BME280;63673;49.928;8.150;2024-03-06T02:21:42;992.88;;;3.65;100
75089;BME280;63673;49.928;8.150;2024-03-06T02:22:42;992.86;;;3.66;100
75089;BME280;63673;49.928;8.150;2024-03-06T02:23:45;992.83;;;3.68;100
75089;BME280;63673;49.928;8.150;2024-03-06T02:24:48;992.87;;;3.7;100
75089;BME280;63673;49.928;8.150;2024-03-06T02:25:48;992.81;;;3.7;100
75089;BME280;63673;49.928;8.150;2024-03-06T02:26:49;992.86;;;3.72;100
75089;BME280;63673;49.928;8.150;2024-03-06T02:27:51;992.88;;;3.73;100
75089;BME280;63673;49.928;8.150;2024-03-06T02:28:53;992.88;;;3.74;100
75089;BME280;63673;49.928;8.150;2024-03-06T02:29:54;992.89;;;3.75;100
75089;BME280;63673;49.928;8.150;2024-03-06T02:30:56;992.81;;;3.75;100
75089;BME280;63673;49.928;8.150;2024-03-06T02:31:58;992.91;;;3.76;100
75089;BME280;63673;49.928;8.150;2024-03-06T02:32:59;992.84;;;3.76;100
75089;BME280;63673;49.928;8.150;2024-03-06T02:34:01;992.88;;;3.77;100
75089;BME280;63673;49.928;8.150;2024-03-06T02:35:03;992.88;;;3.77;100
75089;BME280;63673;49.928;8.150;2024-03-06T02:36:05;992.85;;;3.78;100
75089;BME280;63673;49.928;8.150;2024-03-06T02:37:06;992.85;;;3.78;100
75089;BME280;63673;49.928;8.150;2024-03-06T02:38:08;992.78;;;3.78;100
75089;BME280;63673;49.928;8.150;2024-03-06T02:39:10;992.78;;;3.77;100
75089;BME280;63673;49.928;8.150;2024-03-06T02:40:13;992.83;;;3.79;100
75089;BME280;63673;49.928;8.150;2024-03-06T02:41:13;992.83;;;3.79;100
75089;BME280;63673;49.928;8.150;2024-03-06T02:42:15;992.78;;;3.79;100
75089;BME280;63673;49.928;8.150;2024-03-06T02:43:17;992.8;;;3.8;100
75089;BME280;63673;49.928;8.150;2024-03-06T02:44:18;992.78;;;3.81;100
75089;BME280;63673;49.928;8.150;2024-03-06T02:45:21;992.79;;;3.81;100
75089;BME280;63673;49.928;8.150;2024-03-06T02:46:22;992.8;;;3.81;100
75089;BME280;63673;49.928;8.150;2024-03-06T02:47:24;992.79;;;3.83;100
75089;BME280;63673;49.928;8.150;2024-03-06T02:48:26;992.79;;;3.83;100
75089;BME280;63673;49.928;8.150;2024-03-06T02:49:27;992.79;;;3.84;100
75089;BME280;63673;49.928;8.150;2024-03-06T02:50:29;992.8;;;3.84;100
75089;BME280;63673;49.928;8.150;2024-03-06T02:51:31;992.77;;;3.84;100
75089;BME280;63673;49.928;8.150;2024-03-06T02:52:32;992.77;;;3.85;100
75089;BME280;63673;49.928;8.150;2024-03-06T02:53:34;992.72;;;3.85;100
75089;BME280;63673;49.928;8.150;2024-03-06T02:54:36;992.76;;;3.86;100
75089;BME280;63673;49.928;8.150;2024-03-06T02:55:38;992.78;;;3.87;100
75089;BME280;63673;49.928;8.150;2024-03-06T02:56:39;992.8;;;3.86;100
75089;BME280;63673;49.928;8.150;2024-03-06T02:57:41;992.76;;;3.88;100
75089;BME280;63673;49.928;8.150;2024-03-06T02:58:43;992.79;;;3.88;100
75089;BME280;63673;49.928;8.150;2024-03-06T02:59:45;992.77;;;3.89;100
75089;BME280;63673;49.928;8.150;2024-03-06T03:00:46;992.68;;;3.89;100
75089;BME280;63673;49.928;8.150;2024-03-06T03:01:48;992.68;;;3.9;100
75089;BME280;63673;49.928;8.150;2024-03-06T03:02:50;992.73;;;3.9;100
75089;BME280;63673;49.928;8.150;2024-03-06T03:03:51;992.66;;;3.9;100
75089;BME280;63673;49.928;8.150;2024-03-06T03:04:53;992.64;;;3.91;100
75089;BME280;63673;49.928;8.150;2024-03-06T03:05:55;992.69;;;3.9;100
75089;BME280;63673;49.928;8.150;2024-03-06T03:06:57;992.68;;;3.88;100
75089;BME280;63673;49.928;8.150;2024-03-06T03:07:58;992.64;;;3.88;100
75089;BME280;63673;49.928;8.150;2024-03-06T03:09:00;992.67;;;3.88;100
75089;BME280;63673;49.928;8.150;2024-03-06T03:10:02;992.73;;;3.87;100
75089;BME280;63673;49.928;8.150;2024-03-06T03:11:04;992.74;;;3.87;100
75089;BME280;63673;49.928;8.150;2024-03-06T03:12:05;992.75;;;3.87;100
75089;BME280;63673;49.928;8.150;2024-03-06T03:13:07;992.76;;;3.87;100
75089;BME280;63673;49.928;8.150;2024-03-06T03:14:09;992.8;;;3.88;100
75089;BME280;63673;49.928;8.150;2024-03-06T03:15:11;992.82;;;3.87;100
75089;BME280;63673;49.928;8.150;2024-03-06T03:16:16;992.8;;;3.88;100
75089;BME280;63673;49.928;8.150;2024-03-06T03:17:14;992.78;;;3.88;100
75089;BME280;63673;49.928;8.150;2024-03-06T03:18:16;992.8;;;3.89;100
75089;BME280;63673;49.928;8.150;2024-03-06T03:19:17;992.78;;;3.89;100
75089;BME280;63673;49.928;8.150;2024-03-06T03:20:19;992.82;;;3.89;100
75089;BME280;63673;49.928;8.150;2024-03-06T03:21:21;992.84;;;3.9;100
75089;BME280;63673;49.928;8.150;2024-03-06T03:22:23;992.86;;;3.9;100
75089;BME280;63673;49.928;8.150;2024-03-06T03:23:24;992.87;;;3.9;100
75089;BME280;63673;49.928;8.150;2024-03-06T03:24:26;992.9;;;3.9;100
75089;BME280;63673;49.928;8.150;2024-03-06T03:25:28;992.87;;;3.9;100
75089;BME280;63673;49.928;8.150;2024-03-06T03:26:30;992.92;;;3.91;100
75089;BME280;63673;49.928;8.150;2024-03-06T03:27:31;992.93;;;3.9;100
75089;BME280;63673;49.928;8.150;2024-03-06T03:28:33;992.86;;;3.9;100
75089;BME280;63673;49.928;8.150;2024-03-06T03:29:35;992.89;;;3.9;100
75089;BME280;63673;49.928;8.150;2024-03-06T03:30:36;992.96;;;3.9;100
75089;BME280;63673;49.928;8.150;2024-03-06T03:31:38;992.97;;;3.88;100
75089;BME280;63673;49.928;8.150;2024-03-06T03:32:40;992.93;;;3.88;100
75089;BME280;63673;49.928;8.150;2024-03-06T03:33:42;993.01;;;3.87;100
75089;BME280;63673;49.928;8.150;2024-03-06T03:34:43;993.05;;;3.87;100
75089;BME280;63673;49.928;8.150;2024-03-06T03:35:45;993.03;;;3.85;100
75089;BME280;63673;49.928;8.150;2024-03-06T03:36:47;993.01;;;3.84;100
75089;BME280;63673;49.928;8.150;2024-03-06T03:37:49;993.02;;;3.83;100
75089;BME280;63673;49.928;8.150;2024-03-06T03:38:50;993.05;;;3.82;100
75089;BME280;63673;49.928;8.150;2024-03-06T03:39:52;993.05;;;3.81;100
75089;BME280;63673;49.928;8.150;2024-03-06T03:40:54;993.05;;;3.79;100
75089;BME280;63673;49.928;8.150;2024-03-06T03:41:56;993.04;;;3.79;100
75089;BME280;63673;49.928;8.150;2024-03-06T03:42:57;993.04;;;3.78;100
75089;BME280;63673;49.928;8.150;2024-03-06T03:43:59;993.02;;;3.78;100
75089;BME280;63673;49.928;8.150;2024-03-06T03:45:01;993.03;;;3.77;100
75089;BME280;63673;49.928;8.150;2024-03-06T03:46:03;993.04;;;3.75;100
75089;BME280;63673;49.928;8.150;2024-03-06T03:47:06;993.02;;;3.75;100
75089;BME280;63673;49.928;8.150;2024-03-06T03:48:06;993.03;;;3.75;100
75089;BME280;63673;49.928;8.150;2024-03-06T03:49:08;992.96;;;3.74;100
75089;BME280;63673;49.928;8.150;2024-03-06T03:50:09;992.99;;;3.73;100
75089;BME280;63673;49.928;8.150;2024-03-06T03:51:11;992.99;;;3.72;100
75089;BME280;63673;49.928;8.150;2024-03-06T03:52:13;992.92;;;3.7;100
75089;BME280;63673;49.928;8.150;2024-03-06T03:53:15;992.98;;;3.7;100
75089;BME280;63673;49.928;8.150;2024-03-06T03:54:16;992.95;;;3.69;100
75089;BME280;63673;49.928;8.150;2024-03-06T03:55:18;992.96;;;3.67;100
75089;BME280;63673;49.928;8.150;2024-03-06T03:56:20;992.98;;;3.66;100
75089;BME280;63673;49.928;8.150;2024-03-06T03:57:22;992.96;;;3.65;100
75089;BME280;63673;49.928;8.150;2024-03-06T03:58:23;992.99;;;3.64;100
75089;BME280;63673;49.928;8.150;2024-03-06T03:59:25;992.99;;;3.62;100
75089;BME280;63673;49.928;8.150;2024-03-06T04:00:27;993;;;3.59;100
75089;BME280;63673;49.928;8.150;2024-03-06T04:01:28;992.95;;;3.58;100
75089;BME280;63673;49.928;8.150;2024-03-06T04:02:30;993;;;3.55;100
75089;BME280;63673;49.928;8.150;2024-03-06T04:03:32;993.02;;;3.53;100
75089;BME280;63673;49.928;8.150;2024-03-06T04:04:34;993.07;;;3.51;100
75089;BME280;63673;49.928;8.150;2024-03-06T04:05:35;992.96;;;3.48;100
75089;BME280;63673;49.928;8.150;2024-03-06T04:06:37;993.01;;;3.46;100
75089;BME280;63673;49.928;8.150;2024-03-06T04:07:39;993.05;;;3.44;100
75089;BME280;63673;49.928;8.150;2024-03-06T04:08:41;993.03;;;3.41;100
75089;BME280;63673;49.928;8.150;2024-03-06T04:09:42;993.03;;;3.38;100
75089;BME280;63673;49.928;8.150;2024-03-06T04:10:44;993.08;;;3.36;100
75089;BME280;63673;49.928;8.150;2024-03-06T04:11:46;993.08;;;3.33;100
75089;BME280;63673;49.928;8.150;2024-03-06T04:12:48;993.1;;;3.31;100
75089;BME280;63673;49.928;8.150;2024-03-06T04:13:49;993.1;;;3.3;100
75089;BME280;63673;49.928;8.150;2024-03-06T04:14:51;993.09;;;3.27;100
75089;BME280;63673;49.928;8.150;2024-03-06T04:15:53;993.09;;;3.26;100
75089;BME280;63673;49.928;8.150;2024-03-06T04:16:54;993.08;;;3.26;100
75089;BME280;63673;49.928;8.150;2024-03-06T04:17:56;993.06;;;3.25;100
75089;BME280;63673;49.928;8.150;2024-03-06T04:18:58;993.09;;;3.24;100
75089;BME280;63673;49.928;8.150;2024-03-06T04:20:00;993.08;;;3.24;100
75089;BME280;63673;49.928;8.150;2024-03-06T04:21:02;993.11;;;3.24;100
75089;BME280;63673;49.928;8.150;2024-03-06T04:22:03;993.1;;;3.23;100
75089;BME280;63673;49.928;8.150;2024-03-06T04:23:05;993.11;;;3.22;100
75089;BME280;63673;49.928;8.150;2024-03-06T04:24:07;993.14;;;3.22;100
75089;BME280;63673;49.928;8.150;2024-03-06T04:25:08;993.15;;;3.22;100
75089;BME280;63673;49.928;8.150;2024-03-06T04:26:10;993.16;;;3.23;100
75089;BME280;63673;49.928;8.150;2024-03-06T04:27:12;993.15;;;3.23;100
75089;BME280;63673;49.928;8.150;2024-03-06T04:28:14;993.21;;;3.23;100
75089;BME280;63673;49.928;8.150;2024-03-06T04:29:15;993.2;;;3.23;100
75089;BME280;63673;49.928;8.150;2024-03-06T04:30:17;993.2;;;3.22;100
75089;BME280;63673;49.928;8.150;2024-03-06T04:31:19;993.24;;;3.22;100
75089;BME280;63673;49.928;8.150;2024-03-06T04:32:20;993.23;;;3.24;100
75089;BME280;63673;49.928;8.150;2024-03-06T04:33:22;993.23;;;3.23;100
75089;BME280;63673;49.928;8.150;2024-03-06T04:34:24;993.27;;;3.23;100
75089;BME280;63673;49.928;8.150;2024-03-06T04:35:26;993.3;;;3.24;100
75089;BME280;63673;49.928;8.150;2024-03-06T04:36:27;993.33;;;3.24;100
75089;BME280;63673;49.928;8.150;2024-03-06T04:37:29;993.36;;;3.23;100
75089;BME280;63673;49.928;8.150;2024-03-06T04:38:31;993.37;;;3.23;100
75089;BME280;63673;49.928;8.150;2024-03-06T04:39:33;993.34;;;3.23;100
75089;BME280;63673;49.928;8.150;2024-03-06T04:40:34;993.36;;;3.22;100
75089;BME280;63673;49.928;8.150;2024-03-06T04:41:36;993.36;;;3.22;100
75089;BME280;63673;49.928;8.150;2024-03-06T04:42:38;993.31;;;3.21;100
75089;BME280;63673;49.928;8.150;2024-03-06T04:43:40;993.34;;;3.21;100
75089;BME280;63673;49.928;8.150;2024-03-06T04:44:41;993.38;;;3.2;100
75089;BME280;63673;49.928;8.150;2024-03-06T04:45:43;993.42;;;3.19;100
75089;BME280;63673;49.928;8.150;2024-03-06T04:46:45;993.42;;;3.18;100
75089;BME280;63673;49.928;8.150;2024-03-06T04:47:46;993.45;;;3.17;100
75089;BME280;63673;49.928;8.150;2024-03-06T04:48:48;993.45;;;3.16;100
75089;BME280;63673;49.928;8.150;2024-03-06T04:49:50;993.44;;;3.15;100
75089;BME280;63673;49.928;8.150;2024-03-06T04:50:52;993.51;;;3.14;100
75089;BME280;63673;49.928;8.150;2024-03-06T04:51:53;993.53;;;3.13;100
75089;BME280;63673;49.928;8.150;2024-03-06T04:52:55;993.53;;;3.12;100
75089;BME280;63673;49.928;8.150;2024-03-06T04:53:57;993.58;;;3.11;100
75089;BME280;63673;49.928;8.150;2024-03-06T04:54:59;993.59;;;3.1;100
75089;BME280;63673;49.928;8.150;2024-03-06T04:56:00;993.59;;;3.09;100
75089;BME280;63673;49.928;8.150;2024-03-06T04:57:02;993.6;;;3.09;100
75089;BME280;63673;49.928;8.150;2024-03-06T04:58:04;993.59;;;3.08;100
75089;BME280;63673;49.928;8.150;2024-03-06T04:59:06;993.59;;;3.07;100
75089;BME280;63673;49.928;8.150;2024-03-06T05:00:08;993.59;;;3.07;100
75089;BME280;63673;49.928;8.150;2024-03-06T05:01:09;993.63;;;3.06;100
75089;BME280;63673;49.928;8.150;2024-03-06T05:02:11;993.64;;;3.06;100
75089;BME280;63673;49.928;8.150;2024-03-06T05:03:13;993.67;;;3.06;100
75089;BME280;63673;49.928;8.150;2024-03-06T05:04:14;993.65;;;3.05;100
75089;BME280;63673;49.928;8.150;2024-03-06T05:05:16;993.63;;;3.06;100
75089;BME280;63673;49.928;8.150;2024-03-06T05:06:18;993.57;;;3.04;100
75089;BME280;63673;49.928;8.150;2024-03-06T05:07:19;993.63;;;3.04;100
75089;BME280;63673;49.928;8.150;2024-03-06T05:08:21;993.65;;;3.04;100
75089;BME280;63673;49.928;8.150;2024-03-06T05:09:23;993.66;;;3.04;100
75089;BME280;63673;49.928;8.150;2024-03-06T05:10:25;993.69;;;3.03;100
75089;BME280;63673;49.928;8.150;2024-03-06T05:11:26;993.71;;;3.03;100
75089;BME280;63673;49.928;8.150;2024-03-06T05:12:28;993.7;;;3.02;100
75089;BME280;63673;49.928;8.150;2024-03-06T05:13:30;993.72;;;3.01;100
75089;BME280;63673;49.928;8.150;2024-03-06T05:14:32;993.75;;;3;100
75089;BME280;63673;49.928;8.150;2024-03-06T05:15:33;993.77;;;2.99;100
75089;BME280;63673;49.928;8.150;2024-03-06T05:16:35;993.77;;;2.97;100
75089;BME280;63673;49.928;8.150;2024-03-06T05:17:37;993.77;;;2.95;100
75089;BME280;63673;49.928;8.150;2024-03-06T05:18:38;993.81;;;2.94;100
75089;BME280;63673;49.928;8.150;2024-03-06T05:19:40;993.85;;;2.92;100
75089;BME280;63673;49.928;8.150;2024-03-06T05:20:42;993.85;;;2.91;100
75089;BME280;63673;49.928;8.150;2024-03-06T05:21:44;993.88;;;2.88;100
75089;BME280;63673;49.928;8.150;2024-03-06T05:22:45;993.87;;;2.85;100
75089;BME280;63673;49.928;8.150;2024-03-06T05:23:47;993.83;;;2.83;100
75089;BME280;63673;49.928;8.150;2024-03-06T05:24:49;993.91;;;2.8;100
75089;BME280;63673;49.928;8.150;2024-03-06T05:25:51;993.94;;;2.77;100
75089;BME280;63673;49.928;8.150;2024-03-06T05:26:52;993.93;;;2.73;100
75089;BME280;63673;49.928;8.150;2024-03-06T05:27:54;993.92;;;2.7;100
75089;BME280;63673;49.928;8.150;2024-03-06T05:28:56;993.9;;;2.67;100
75089;BME280;63673;49.928;8.150;2024-03-06T05:29:58;993.92;;;2.63;100
75089;BME280;63673;49.928;8.150;2024-03-06T05:30:59;993.97;;;2.61;100
75089;BME280;63673;49.928;8.150;2024-03-06T05:32:01;993.96;;;2.58;100
75089;BME280;63673;49.928;8.150;2024-03-06T05:33:03;993.99;;;2.56;100
75089;BME280;63673;49.928;8.150;2024-03-06T05:34:04;993.99;;;2.55;100
75089;BME280;63673;49.928;8.150;2024-03-06T05:35:06;994.03;;;2.53;100
75089;BME280;63673;49.928;8.150;2024-03-06T05:36:08;994;;;2.51;100
75089;BME280;63673;49.928;8.150;2024-03-06T05:37:10;994.05;;;2.51;100
75089;BME280;63673;49.928;8.150;2024-03-06T05:38:11;994.05;;;2.5;100
75089;BME280;63673;49.928;8.150;2024-03-06T05:39:13;994.06;;;2.49;100
75089;BME280;63673;49.928;8.150;2024-03-06T05:40:15;994.06;;;2.49;100
75089;BME280;63673;49.928;8.150;2024-03-06T05:41:17;994.06;;;2.48;100
75089;BME280;63673;49.928;8.150;2024-03-06T05:42:18;994.14;;;2.47;100
75089;BME280;63673;49.928;8.150;2024-03-06T05:43:20;994.12;;;2.46;100
75089;BME280;63673;49.928;8.150;2024-03-06T05:44:22;994.13;;;2.44;100
75089;BME280;63673;49.928;8.150;2024-03-06T05:45:24;994.14;;;2.44;100
75089;BME280;63673;49.928;8.150;2024-03-06T05:46:25;994.11;;;2.44;100
75089;BME280;63673;49.928;8.150;2024-03-06T05:47:27;994.12;;;2.44;100
75089;BME280;63673;49.928;8.150;2024-03-06T05:48:29;994.14;;;2.43;100
75089;BME280;63673;49.928;8.150;2024-03-06T05:49:31;994.16;;;2.44;100
75089;BME280;63673;49.928;8.150;2024-03-06T05:50:33;994.19;;;2.44;100
75089;BME280;63673;49.928;8.150;2024-03-06T05:51:34;994.23;;;2.44;100